createdAt,value
2022-12-16T00:00:30.556Z,46.97
2022-12-16T00:02:32.739Z,44.42
2022-12-16T00:04:34.786Z,47.17
2022-12-16T00:06:36.831Z,46.53
2022-12-16T00:08:40.007Z,47.35
2022-12-16T00:11:02.171Z,46.38
2022-12-16T00:13:08.924Z,47.20
2022-12-16T00:15:12.543Z,46.90
2022-12-16T00:17:14.511Z,47.13
2022-12-16T00:19:16.426Z,51.53
2022-12-16T00:21:21.417Z,50.17
2022-12-16T00:23:23.589Z,48.88
2022-12-16T00:25:26.488Z,49.45
2022-12-16T00:27:31.634Z,48.00
2022-12-16T00:29:33.572Z,50.15
2022-12-16T00:31:35.591Z,47.25
2022-12-16T00:33:37.650Z,44.83
2022-12-16T00:35:44.407Z,46.30
2022-12-16T00:37:48.035Z,46.53
2022-12-16T00:39:49.939Z,44.67
2022-12-16T00:41:52.138Z,45.85
2022-12-16T00:43:55.075Z,48.10
2022-12-16T00:45:57.073Z,45.83
2022-12-16T00:47:59.291Z,48.40
2022-12-16T00:50:01.376Z,50.38
2022-12-16T00:52:03.278Z,49.90
2022-12-16T00:54:05.254Z,48.83
2022-12-16T00:56:10.656Z,50.55
2022-12-16T00:58:17.962Z,46.35
2022-12-16T01:00:20.506Z,46.63
2022-12-16T01:02:22.473Z,47.20
2022-12-16T01:04:26.900Z,48.78
2022-12-16T01:06:28.925Z,46.72
2022-12-16T01:08:30.829Z,44.00
2022-12-16T01:10:32.745Z,44.03
2022-12-16T01:12:35.663Z,44.75
2022-12-16T01:14:37.495Z,44.10
2022-12-16T01:16:39.435Z,44.90
2022-12-16T01:18:41.351Z,46.00
2022-12-16T01:20:43.539Z,43.13
2022-12-16T01:22:45.590Z,41.03
2022-12-16T01:24:47.901Z,41.45
2022-12-16T01:26:49.800Z,42.15
2022-12-16T01:28:52.451Z,40.67
2022-12-16T01:31:01.950Z,42.80
2022-12-16T01:33:04.057Z,39.25
2022-12-16T01:35:17.980Z,36.63
2022-12-16T01:37:28.456Z,38.45
2022-12-16T01:39:30.558Z,37.08
2022-12-16T01:41:33.366Z,39.08
2022-12-16T01:43:37.785Z,39.80
2022-12-16T01:45:39.885Z,36.30
2022-12-16T01:47:42.143Z,36.00
2022-12-16T01:50:06.346Z,35.13
2022-12-16T01:52:13.412Z,35.47
2022-12-16T01:54:26.448Z,34.08
2022-12-16T01:56:31.987Z,36.17
2022-12-16T01:58:38.053Z,36.97
2022-12-16T02:00:41.316Z,34.85
2022-12-16T02:02:46.303Z,31.95
2022-12-16T02:05:07.146Z,31.52
2022-12-16T02:07:08.985Z,31.95
2022-12-16T02:09:13.246Z,33.78
2022-12-16T02:11:17.830Z,31.13
2022-12-16T02:13:23.738Z,31.38
2022-12-16T02:15:32.022Z,33.00
2022-12-16T02:17:41.396Z,32.83
2022-12-16T02:20:08.244Z,34.88
2022-12-16T02:22:52.850Z,30.67
2022-12-16T02:25:16.435Z,35.42
2022-12-16T02:27:40.403Z,35.17
2022-12-16T02:29:54.409Z,35.30
2022-12-16T02:32:21.472Z,34.58
2022-12-16T02:34:55.137Z,35.53
2022-12-16T02:37:13.623Z,33.90
2022-12-16T02:39:22.552Z,32.13
2022-12-16T02:41:39.760Z,34.35
2022-12-16T02:44:02.529Z,32.88
2022-12-16T02:46:07.424Z,34.13
2022-12-16T02:48:10.378Z,34.35
2022-12-16T02:50:21.699Z,33.63
2022-12-16T02:52:29.849Z,33.20
2022-12-16T02:54:31.894Z,32.88
2022-12-16T02:56:50.026Z,32.53
2022-12-16T02:58:56.214Z,31.70
2022-12-16T03:01:12.563Z,34.28
2022-12-16T03:03:27.889Z,32.58
2022-12-16T03:05:41.135Z,36.78
2022-12-16T03:07:45.284Z,35.72
2022-12-16T03:09:48.538Z,32.25
2022-12-16T03:11:53.323Z,35.38
2022-12-16T03:13:58.260Z,35.53
2022-12-16T03:16:01.685Z,33.40
2022-12-16T03:18:07.891Z,34.53
2022-12-16T03:20:25.152Z,33.58
2022-12-16T03:22:33.102Z,33.45
2022-12-16T03:24:36.334Z,34.72
2022-12-16T03:26:45.002Z,34.40
2022-12-16T03:28:58.617Z,32.67
2022-12-16T03:31:41.781Z,33.42
2022-12-16T03:34:10.943Z,37.33
2022-12-16T03:36:22.426Z,33.47
2022-12-16T03:38:26.834Z,34.58
2022-12-16T03:40:29.342Z,35.88
2022-12-16T03:42:31.533Z,34.40
2022-12-16T03:44:36.106Z,32.35
2022-12-16T03:46:38.186Z,36.05
2022-12-16T03:48:47.049Z,33.53
2022-12-16T03:50:49.009Z,34.25
2022-12-16T03:52:50.949Z,31.15
2022-12-16T03:54:53.867Z,31.77
2022-12-16T03:56:55.770Z,33.00
2022-12-16T03:58:57.630Z,32.25
2022-12-16T04:01:00.591Z,34.17
2022-12-16T04:03:02.706Z,34.30
2022-12-16T04:05:04.995Z,33.40
2022-12-16T04:07:22.114Z,33.38
2022-12-16T04:09:24.048Z,34.78
2022-12-16T04:11:44.562Z,32.97
2022-12-16T04:14:04.854Z,33.72
2022-12-16T04:16:33.008Z,35.53
2022-12-16T04:18:54.157Z,34.55
2022-12-16T04:21:15.691Z,30.60
2022-12-16T04:23:37.246Z,34.90
2022-12-16T04:25:39.138Z,34.05
2022-12-16T04:27:47.148Z,32.30
2022-12-16T04:30:15.164Z,32.20
2022-12-16T04:32:17.326Z,30.33
2022-12-16T04:34:26.378Z,32.60
2022-12-16T04:36:46.693Z,31.40
2022-12-16T04:39:07.127Z,37.53
2022-12-16T04:41:27.718Z,34.50
2022-12-16T04:43:52.684Z,33.15
2022-12-16T04:46:13.273Z,34.08
2022-12-16T04:48:33.859Z,34.28
2022-12-16T04:50:54.069Z,35.20
2022-12-16T04:53:14.753Z,36.10
2022-12-16T04:55:35.481Z,34.90
2022-12-16T04:57:56.117Z,36.85
2022-12-16T05:00:16.820Z,35.92
2022-12-16T05:02:38.303Z,40.33
2022-12-16T05:04:58.570Z,38.33
2022-12-16T05:07:19.276Z,36.58
2022-12-16T05:09:39.963Z,37.38
2022-12-16T05:12:00.526Z,36.60
2022-12-16T05:14:21.129Z,35.83
2022-12-16T05:16:41.425Z,34.53
2022-12-16T05:19:01.971Z,35.58
2022-12-16T05:21:22.563Z,37.28
2022-12-16T05:23:43.104Z,39.17
2022-12-16T05:26:03.694Z,37.03
2022-12-16T05:28:24.738Z,38.13
2022-12-16T05:30:45.276Z,36.22
2022-12-16T05:33:07.810Z,34.67
2022-12-16T05:35:28.935Z,38.47
2022-12-16T05:37:49.418Z,37.90
2022-12-16T05:40:09.992Z,39.90
2022-12-16T05:42:30.263Z,35.88
2022-12-16T05:44:50.648Z,39.78
2022-12-16T05:47:11.368Z,37.83
2022-12-16T05:49:31.642Z,36.30
2022-12-16T05:51:52.265Z,35.97
2022-12-16T05:54:12.592Z,41.00
2022-12-16T05:56:32.875Z,37.30
2022-12-16T05:58:53.423Z,37.75
2022-12-16T06:01:14.046Z,40.20
2022-12-16T06:03:34.969Z,40.63
2022-12-16T06:05:55.482Z,40.00
2022-12-16T06:08:15.766Z,42.30
2022-12-16T06:10:36.222Z,41.08
2022-12-16T06:12:56.819Z,42.45
2022-12-16T06:15:17.380Z,42.20
2022-12-16T06:17:40.798Z,40.30
2022-12-16T06:20:01.114Z,44.00
2022-12-16T06:22:21.425Z,41.50
2022-12-16T06:24:42.091Z,38.95
2022-12-16T06:27:02.657Z,40.10
2022-12-16T06:29:23.298Z,39.38
2022-12-16T06:31:43.659Z,40.38
2022-12-16T06:34:04.203Z,40.22
2022-12-16T06:36:25.240Z,44.28
2022-12-16T06:38:45.680Z,39.22
2022-12-16T06:41:06.371Z,42.65
2022-12-16T06:43:26.638Z,43.72
2022-12-16T06:45:47.003Z,44.13
2022-12-16T06:48:07.552Z,41.97
2022-12-16T06:50:28.053Z,41.97
2022-12-16T06:52:48.476Z,45.05
2022-12-16T06:55:08.759Z,45.88
2022-12-16T06:57:29.092Z,41.88
2022-12-16T06:59:49.700Z,42.83
2022-12-16T07:02:10.612Z,45.38
2022-12-16T07:04:31.381Z,44.10
2022-12-16T07:06:51.838Z,46.80
2022-12-16T07:09:12.147Z,45.42
2022-12-16T07:11:32.430Z,45.42
2022-12-16T07:13:53.086Z,47.45
2022-12-16T07:16:14.833Z,46.00
2022-12-16T07:18:35.254Z,43.53
2022-12-16T07:20:55.527Z,46.47
2022-12-16T07:23:19.557Z,43.65
2022-12-16T07:25:40.398Z,45.35
2022-12-16T07:28:05.175Z,49.47
2022-12-16T07:30:29.891Z,45.45
2022-12-16T07:32:51.422Z,46.97
2022-12-16T07:35:12.086Z,47.05
2022-12-16T07:37:32.479Z,50.60
2022-12-16T07:39:55.171Z,49.22
2022-12-16T07:42:16.052Z,48.30
2022-12-16T07:44:37.734Z,50.28
2022-12-16T07:46:58.373Z,46.92
2022-12-16T07:49:19.603Z,50.38
2022-12-16T07:51:56.775Z,45.90
2022-12-16T07:54:17.207Z,46.10
2022-12-16T07:56:37.887Z,56.22
2022-12-16T07:58:58.502Z,58.38
2022-12-16T08:01:19.611Z,48.05
2022-12-16T08:03:40.089Z,49.50
2022-12-16T08:06:00.380Z,48.38
2022-12-16T08:08:20.595Z,50.75
2022-12-16T08:10:41.202Z,48.38
2022-12-16T08:13:01.906Z,48.42
2022-12-16T08:15:22.367Z,45.22
2022-12-16T08:17:42.810Z,48.47
2022-12-16T08:20:03.062Z,51.10
2022-12-16T08:22:23.401Z,50.90
2022-12-16T08:24:49.689Z,50.22
2022-12-16T08:27:13.762Z,47.20
2022-12-16T08:29:44.114Z,48.70
2022-12-16T08:32:05.265Z,46.85
2022-12-16T08:34:25.853Z,48.33
2022-12-16T08:37:03.019Z,47.28
2022-12-16T08:39:23.832Z,50.58
2022-12-16T08:41:44.501Z,49.97
2022-12-16T08:44:05.074Z,55.15
2022-12-16T08:46:25.739Z,57.95
2022-12-16T08:48:46.712Z,66.35
2022-12-16T08:51:07.271Z,50.13
2022-12-16T08:53:28.117Z,57.38
2022-12-16T08:55:48.856Z,59.85
2022-12-16T08:58:15.270Z,46.42
2022-12-16T09:00:35.957Z,47.42
2022-12-16T09:02:57.915Z,46.40
2022-12-16T09:07:39.163Z,47.38
2022-12-16T09:09:59.490Z,43.67
2022-12-16T09:12:20.091Z,48.45
2022-12-16T09:14:41.795Z,43.95
2022-12-16T09:17:02.357Z,48.05
2022-12-16T09:19:23.076Z,48.58
2022-12-16T09:21:48.464Z,51.33
2022-12-16T09:24:08.721Z,44.17
2022-12-16T09:26:29.340Z,42.75
2022-12-16T09:28:50.950Z,44.15
2022-12-16T09:31:11.509Z,44.70
2022-12-16T09:33:32.719Z,43.60
2022-12-16T09:35:54.379Z,42.37
2022-12-16T09:38:16.080Z,43.05
2022-12-16T09:40:37.439Z,41.50
2022-12-16T09:43:15.406Z,43.13
2022-12-16T09:45:51.286Z,44.72
2022-12-16T09:48:39.708Z,44.03
2022-12-16T09:51:02.706Z,42.03
2022-12-16T09:53:26.357Z,42.65
2022-12-16T09:55:59.312Z,41.72
2022-12-16T09:58:20.755Z,40.90
2022-12-16T10:00:46.366Z,43.17
2022-12-16T10:03:10.199Z,41.17
2022-12-16T10:05:33.553Z,41.25
2022-12-16T10:07:59.411Z,42.22
2022-12-16T10:10:36.239Z,40.20
2022-12-16T10:13:05.167Z,45.25
2022-12-16T10:15:48.780Z,40.83
2022-12-16T10:18:09.323Z,40.28
2022-12-16T10:20:47.973Z,43.17
2022-12-16T10:23:23.431Z,39.55
2022-12-16T10:26:08.889Z,41.78
2022-12-16T10:28:43.488Z,42.30
2022-12-16T10:31:03.845Z,44.75
2022-12-16T10:33:29.365Z,41.25
2022-12-16T10:35:55.592Z,45.83
2022-12-16T10:38:16.176Z,42.40
2022-12-16T10:40:41.695Z,38.92
2022-12-16T10:43:15.779Z,38.97
2022-12-16T10:45:48.068Z,44.33
2022-12-16T10:48:09.255Z,43.33
2022-12-16T10:50:33.698Z,41.35
2022-12-16T10:52:54.284Z,39.28
2022-12-16T10:58:41.844Z,37.08
2022-12-16T11:01:06.657Z,39.33
2022-12-16T11:03:42.434Z,37.42
2022-12-16T11:06:03.119Z,38.33
2022-12-16T11:08:24.124Z,39.55
2022-12-16T11:10:44.598Z,39.67
2022-12-16T11:13:17.297Z,40.88
2022-12-16T11:15:44.516Z,39.40
2022-12-16T11:18:24.119Z,41.08
2022-12-16T11:20:44.976Z,41.38
2022-12-16T11:23:05.477Z,40.90
2022-12-16T11:25:31.582Z,43.08
2022-12-16T11:27:52.338Z,43.30
2022-12-16T11:30:16.309Z,39.70
2022-12-16T11:32:41.790Z,41.20
2022-12-16T11:35:06.527Z,39.42
2022-12-16T11:37:30.044Z,41.10
2022-12-16T11:39:53.939Z,39.15
2022-12-16T11:42:15.303Z,40.47
2022-12-16T11:44:40.303Z,37.35
2022-12-16T11:47:02.071Z,40.85
2022-12-16T11:49:31.383Z,38.50
2022-12-16T11:52:08.254Z,36.78
2022-12-16T11:54:49.079Z,36.17
2022-12-16T11:57:09.749Z,36.83
2022-12-16T11:59:51.565Z,36.47
2022-12-16T12:02:20.074Z,33.20
2022-12-16T12:04:40.731Z,38.40
2022-12-16T12:07:26.203Z,42.15
2022-12-16T12:09:47.330Z,38.13
2022-12-16T12:12:22.064Z,40.33
2022-12-16T12:14:42.684Z,34.95
2022-12-16T12:17:23.684Z,34.42
2022-12-16T12:20:23.199Z,35.78
2022-12-16T12:22:58.008Z,35.15
2022-12-16T12:25:39.823Z,35.70
2022-12-16T12:28:14.043Z,37.67
2022-12-16T12:30:39.292Z,37.55
2022-12-16T12:33:11.875Z,35.55
2022-12-16T12:35:41.268Z,35.33
2022-12-16T12:38:43.898Z,36.95
2022-12-16T12:41:13.372Z,35.60
2022-12-16T12:43:55.225Z,36.33
2022-12-16T12:46:37.513Z,35.90
2022-12-16T12:49:23.614Z,34.85
2022-12-16T12:51:59.276Z,35.42
2022-12-16T12:54:40.744Z,35.20
2022-12-16T12:57:05.648Z,34.45
2022-12-16T12:59:37.724Z,36.35
2022-12-16T13:02:02.005Z,34.33
2022-12-16T13:04:31.526Z,32.90
2022-12-16T13:06:55.993Z,34.30
2022-12-16T13:09:17.974Z,37.63
2022-12-16T13:11:39.665Z,33.58
2022-12-16T13:14:02.066Z,35.55
2022-12-16T13:16:28.165Z,34.47
2022-12-16T13:18:52.647Z,37.67
2022-12-16T13:21:17.051Z,40.92
2022-12-16T13:23:57.393Z,34.45
2022-12-16T13:26:24.430Z,32.60
2022-12-16T13:28:57.896Z,35.55
2022-12-16T13:31:25.692Z,34.95
2022-12-16T13:33:49.331Z,35.28
2022-12-16T13:36:15.553Z,34.47
2022-12-16T13:38:40.580Z,36.40
2022-12-16T13:41:23.663Z,35.38
2022-12-16T13:44:08.131Z,35.75
2022-12-16T13:46:34.116Z,35.60
2022-12-16T13:48:59.692Z,33.80
2022-12-16T13:51:20.260Z,34.10
2022-12-16T13:53:47.174Z,33.38
2022-12-16T13:56:10.628Z,27.50
2022-12-16T13:58:57.093Z,31.55
2022-12-16T14:01:25.516Z,31.73
2022-12-16T14:04:07.734Z,32.13
2022-12-16T14:06:50.351Z,34.10
2022-12-16T14:09:10.742Z,37.38
2022-12-16T14:12:01.428Z,33.28
2022-12-16T14:14:28.086Z,32.72
2022-12-16T14:17:20.131Z,32.55
2022-12-16T14:20:02.197Z,32.28
2022-12-16T14:22:34.980Z,32.67
2022-12-16T14:24:57.785Z,34.08
2022-12-16T14:27:24.709Z,33.55
2022-12-16T14:29:51.226Z,32.72
2022-12-16T14:32:11.915Z,35.10
2022-12-16T14:34:36.259Z,33.55
2022-12-16T14:36:58.878Z,35.95
2022-12-16T14:39:19.382Z,35.28
2022-12-16T14:41:43.953Z,35.85
2022-12-16T14:44:04.071Z,35.42
2022-12-16T14:46:25.709Z,34.92
2022-12-16T14:48:50.602Z,33.65
2022-12-16T14:51:11.010Z,34.67
2022-12-16T14:53:38.479Z,35.40
2022-12-16T14:55:59.290Z,40.10
2022-12-16T14:58:32.106Z,32.78
2022-12-16T15:00:54.549Z,31.92
2022-12-16T15:03:21.787Z,35.65
2022-12-16T15:05:50.219Z,32.72
2022-12-16T15:08:11.031Z,34.63
2022-12-16T15:10:33.787Z,34.53
2022-12-16T15:12:58.301Z,32.97
2022-12-16T15:15:22.137Z,36.67
2022-12-16T15:17:46.968Z,32.58
2022-12-16T15:20:12.222Z,31.20
2022-12-16T15:22:36.151Z,31.98
2022-12-16T15:24:57.829Z,32.40
2022-12-16T15:27:43.813Z,33.97
2022-12-16T15:30:04.469Z,31.95
2022-12-16T15:32:52.439Z,32.33
2022-12-16T15:35:12.719Z,30.63
2022-12-16T15:38:03.635Z,31.00
2022-12-16T15:40:39.385Z,31.23
2022-12-16T15:43:01.384Z,30.85
2022-12-16T15:45:22.881Z,29.75
2022-12-16T15:47:57.053Z,30.88
2022-12-16T15:50:21.898Z,32.05
2022-12-16T15:52:54.875Z,30.20
2022-12-16T15:55:15.287Z,28.85
2022-12-16T15:57:53.605Z,30.92
2022-12-16T16:00:18.569Z,31.05
2022-12-16T16:02:44.147Z,28.17
2022-12-16T16:05:12.356Z,29.83
2022-12-16T16:07:43.340Z,28.45
2022-12-16T16:10:04.156Z,27.75
2022-12-16T16:12:24.550Z,30.75
2022-12-16T16:14:45.093Z,29.23
2022-12-16T16:17:13.139Z,30.17
2022-12-16T16:19:43.147Z,29.95
2022-12-16T16:22:04.994Z,28.38
2022-12-16T16:24:25.773Z,29.55
2022-12-16T16:26:46.527Z,29.77
2022-12-16T16:29:07.054Z,30.00
2022-12-16T16:31:29.285Z,28.88
2022-12-16T16:33:49.976Z,29.73
2022-12-16T16:36:10.272Z,28.27
2022-12-16T16:38:31.205Z,28.95
2022-12-16T16:40:56.987Z,31.23
2022-12-16T16:43:17.654Z,28.75
2022-12-16T16:45:38.289Z,31.75
2022-12-16T16:47:59.022Z,33.58
2022-12-16T16:50:19.713Z,28.92
2022-12-16T16:52:42.350Z,28.95
2022-12-16T16:55:02.925Z,31.88
2022-12-16T16:57:23.693Z,30.73
2022-12-16T16:59:44.456Z,29.75
2022-12-16T17:02:05.226Z,29.10
2022-12-16T17:04:26.102Z,29.58
2022-12-16T17:06:46.917Z,28.35
2022-12-16T17:09:09.377Z,31.63
2022-12-16T17:11:37.701Z,30.40
2022-12-16T17:14:09.036Z,30.38
2022-12-16T17:16:30.927Z,34.47
2022-12-16T17:21:13.614Z,33.25
2022-12-16T17:23:34.205Z,32.00
2022-12-16T17:25:54.906Z,30.95
2022-12-16T17:28:17.247Z,33.00
2022-12-16T17:30:47.032Z,31.60
2022-12-16T17:33:09.119Z,33.05
2022-12-16T17:35:41.337Z,31.17
2022-12-16T17:40:23.275Z,31.30
2022-12-16T17:42:48.153Z,31.98
2022-12-16T17:45:08.495Z,27.73
2022-12-16T17:47:29.121Z,29.20
2022-12-16T17:49:49.782Z,31.42
2022-12-16T17:52:10.577Z,30.70
2022-12-16T17:54:30.830Z,32.40
2022-12-16T17:56:51.131Z,28.50
2022-12-16T17:59:11.705Z,32.95
2022-12-16T18:01:33.857Z,30.48
2022-12-16T18:03:54.727Z,29.70
2022-12-16T18:06:16.242Z,30.65
2022-12-16T18:08:36.603Z,29.30
2022-12-16T18:10:57.258Z,27.45
2022-12-16T18:13:18.607Z,30.33
2022-12-16T18:15:39.330Z,28.65
2022-12-16T18:18:00.087Z,28.63
2022-12-16T18:20:21.426Z,28.65
2022-12-16T18:22:42.472Z,31.98
2022-12-16T18:25:03.113Z,35.33
2022-12-16T18:27:24.226Z,29.88
2022-12-16T18:29:47.474Z,28.97
2022-12-16T18:32:09.533Z,30.30
2022-12-16T18:34:31.452Z,29.23
2022-12-16T18:36:51.905Z,29.83
2022-12-16T18:39:12.656Z,30.92
2022-12-16T18:41:35.814Z,29.50
2022-12-16T18:43:57.739Z,26.75
2022-12-16T18:46:19.157Z,26.60
2022-12-16T18:48:40.136Z,28.60
2022-12-16T18:51:00.744Z,27.63
2022-12-16T18:53:23.982Z,28.63
2022-12-16T18:55:46.594Z,30.30
2022-12-16T18:58:34.704Z,28.27
2022-12-16T19:00:52.257Z,30.25
2022-12-16T19:03:13.363Z,26.30
2022-12-16T19:05:34.107Z,28.17
2022-12-16T19:07:55.768Z,26.33
2022-12-16T19:10:16.479Z,26.80
2022-12-16T19:12:39.083Z,26.67
2022-12-16T19:15:02.394Z,29.50
2022-12-16T19:17:23.282Z,26.63
2022-12-16T19:19:45.459Z,27.10
2022-12-16T19:22:06.477Z,26.17
2022-12-16T19:24:27.558Z,26.77
2022-12-16T19:26:48.942Z,26.15
2022-12-16T19:29:09.417Z,30.65
2022-12-16T19:31:32.805Z,27.25
2022-12-16T19:33:54.667Z,28.52
2022-12-16T19:36:17.162Z,28.00
2022-12-16T19:38:38.004Z,29.00
2022-12-16T19:40:58.383Z,28.02
2022-12-16T19:43:19.070Z,47.28
2022-12-16T19:45:39.570Z,68.35
2022-12-16T19:48:00.588Z,63.22
2022-12-16T19:50:24.937Z,49.80
2022-12-16T19:52:49.915Z,60.80
2022-12-16T19:55:17.424Z,35.88
2022-12-16T19:57:38.803Z,39.17
2022-12-16T19:59:59.401Z,43.70
2022-12-16T20:02:20.606Z,35.75
2022-12-16T20:04:42.012Z,41.22
2022-12-16T20:07:02.786Z,44.03
2022-12-16T20:09:24.140Z,36.92
2022-12-16T20:11:44.907Z,75.57
2022-12-16T20:14:05.803Z,75.18
2022-12-16T20:16:29.300Z,68.55
2022-12-16T20:18:54.897Z,32.05
2022-12-16T20:21:24.280Z,48.08
2022-12-16T20:23:44.827Z,58.00
2022-12-16T20:26:16.594Z,32.15
2022-12-16T20:28:37.377Z,32.33
2022-12-16T20:30:57.826Z,62.95
2022-12-16T20:33:18.492Z,49.42
2022-12-16T20:35:39.167Z,67.93
2022-12-16T20:38:05.775Z,32.83
2022-12-16T20:40:27.159Z,32.20
2022-12-16T20:42:48.873Z,40.10
2022-12-16T20:45:10.211Z,37.03
2022-12-16T20:47:31.004Z,39.92
2022-12-16T20:49:51.967Z,30.45
2022-12-16T20:52:13.719Z,31.88
2022-12-16T20:54:34.588Z,32.28
2022-12-16T20:56:55.642Z,34.47
2022-12-16T20:59:17.338Z,30.88
2022-12-16T21:01:47.941Z,33.90
2022-12-16T21:04:16.781Z,32.05
2022-12-16T21:06:48.789Z,29.45
2022-12-16T21:11:31.347Z,29.95
2022-12-16T21:13:52.048Z,32.28
2022-12-16T21:16:12.887Z,35.63
2022-12-16T21:18:33.261Z,47.35
2022-12-16T21:20:56.656Z,34.78
2022-12-16T21:23:21.740Z,33.80
2022-12-16T21:25:44.892Z,46.00
2022-12-16T21:28:06.611Z,31.20
2022-12-16T21:30:27.877Z,35.88
2022-12-16T21:32:48.829Z,33.78
2022-12-16T21:35:09.675Z,33.20
2022-12-16T21:37:32.479Z,35.72
2022-12-16T21:39:53.181Z,34.97
2022-12-16T21:42:15.445Z,34.95
2022-12-16T21:44:35.979Z,34.83
2022-12-16T21:46:56.630Z,32.38
2022-12-16T21:49:17.363Z,32.40
2022-12-16T21:51:39.073Z,34.75
2022-12-16T21:54:04.801Z,33.80
2022-12-16T21:56:29.148Z,34.40
2022-12-16T21:58:49.695Z,38.70
2022-12-16T22:01:15.156Z,37.38
2022-12-16T22:03:36.067Z,35.40
2022-12-16T22:05:56.990Z,36.03
2022-12-16T22:08:17.787Z,34.95
2022-12-16T22:10:38.375Z,31.52
2022-12-16T22:12:59.083Z,33.58
2022-12-16T22:15:19.538Z,36.60
2022-12-16T22:17:40.057Z,32.20
2022-12-16T22:20:00.760Z,31.38
2022-12-16T22:22:21.346Z,31.73
2022-12-16T22:24:41.947Z,33.80
2022-12-16T22:27:02.295Z,32.35
2022-12-16T22:29:22.614Z,33.15
2022-12-16T22:31:43.315Z,33.67
2022-12-16T22:34:07.961Z,31.85
2022-12-16T22:36:32.079Z,33.67
2022-12-16T22:38:56.393Z,31.92
2022-12-16T22:41:18.041Z,34.28
2022-12-16T22:43:45.736Z,34.03
2022-12-16T22:46:07.189Z,32.40
2022-12-16T22:48:30.079Z,34.65
2022-12-16T22:50:51.313Z,33.22
2022-12-16T22:53:12.418Z,31.70
2022-12-16T22:55:32.993Z,31.88
2022-12-16T22:57:53.527Z,35.33
2022-12-16T23:00:14.171Z,33.42
2022-12-16T23:02:34.769Z,32.63
2022-12-16T23:04:55.517Z,32.50
2022-12-16T23:07:17.479Z,30.33
2022-12-16T23:09:38.018Z,30.67
2022-12-16T23:11:59.876Z,30.70
2022-12-16T23:14:20.232Z,32.75
2022-12-16T23:16:40.910Z,29.75
2022-12-16T23:19:02.217Z,30.15
2022-12-16T23:21:22.871Z,28.67
2022-12-16T23:23:43.431Z,31.65
2022-12-16T23:26:17.650Z,31.15
2022-12-16T23:28:38.154Z,31.77
2022-12-16T23:30:58.545Z,31.92
2022-12-16T23:33:20.210Z,29.70
2022-12-16T23:35:40.814Z,32.40
2022-12-16T23:38:01.368Z,34.25
2022-12-16T23:40:22.694Z,31.40
2022-12-16T23:42:43.085Z,30.15
2022-12-16T23:45:03.739Z,32.42
2022-12-16T23:47:24.392Z,30.70
2022-12-16T23:49:44.896Z,28.85
2022-12-16T23:52:05.271Z,32.28
2022-12-16T23:54:25.605Z,34.08
2022-12-16T23:56:47.294Z,31.58
2022-12-16T23:59:08.914Z,32.47
